x

9410230 - La Jolla, Ca (ljac1) Weather Station

5:54 - Wed 24th May 2017 All times are PDT. -7 hours from GMT.

  • Wind
    3mph, 7mph gusts
  • Sea Temp 57°f
  • Ar Temp 62°f
  • Sea Pressure 1011.1mb
  • 9410230 - La Jolla, Ca
  • 9410230 - La Jolla, Ca

More Historic Weather Station data

Upgrade to MSW Pro to gain access to the past 30 days of data for over 8000 Wavebouys and Weather Stations around the globe.

Join Pro

Comparision Forecast

View Surf forecast
   
Qua 05/24 5:54 3 7 mph 1011.1mb 57f 62f
5:48 7 8 mph 1011mb 58f 62f
5:42 2 3 mph 1010.9mb 56f 62f
5:36 1 5 mph 1010.7mb 56f 62f
5:30 3 5 mph 1010.6mb 55f 62f
5:24 2 2 mph 1010.7mb 55f 62f
5:18 2 2 mph 1010.7mb 54f 62f
5:12 2 3 mph 1010.8mb 54f 62f
5:06  -  1 mph 1010.8mb 55f 62f
5:00 1 2 mph 1010.8mb 55f 62f
4:54  -  3 mph 1010.8mb 55f 62f
4:48 2 6 mph 1010.8mb 55f 62f
4:42 6 8 mph 1010.7mb 55f 62f
4:36 5 7 mph 1010.8mb 55f 62f
4:30 5 8 mph 1010.7mb 55f 62f
4:24 5 7 mph 1010.7mb 55f 62f
4:18 6 10 mph 1010.8mb 55f 62f
4:12 7 10 mph 1010.9mb 55f 62f
4:06 8 9 mph 1010.9mb 55f 62f
4:00 5 8 mph 1011.2mb 56f 62f
3:54 6 8 mph 1011.4mb 56f 63f
3:48 5 6 mph 1011.3mb 56f 63f
3:42 2 3 mph 1011.4mb 56f 63f
3:36  -  2 mph 1011.6mb 57f 63f
3:30 1 2 mph 1011.5mb 57f 62f
3:24  -  3 mph 1011.5mb 57f 63f
3:18 2 3 mph 1011.6mb 57f 63f
3:12 2 3 mph 1011.6mb 57f 62f
3:06 1 2 mph 1011.6mb 58f 62f
3:00 3 6 mph 1011.8mb 58f 62f
2:54 5 8 mph 1011.8mb 57f 62f
2:48 6 7 mph 1011.9mb 57f 62f
2:42 2 3 mph 1011.8mb 58f 63f
2:36 2 6 mph 1011.5mb 59f 62f
2:30 1 5 mph 1011.4mb 61f 63f
2:24 2 5 mph 1011.4mb 61f 63f
2:18 2 2 mph 1011.4mb 58f 62f
2:12  -  2 mph 1011.5mb 59f 62f
2:06  -  1 mph 1011.6mb 59f 63f
2:00 1 2 mph 1011.7mb 57f 62f
1:54 1 2 mph 1011.8mb 57f 62f
1:48 2 3 mph 1011.8mb 57f 62f
1:42 2 3 mph 1011.8mb 56f 62f
1:36 2 3 mph 1011.9mb 56f 62f
1:30 3 7 mph 1012mb 56f 62f
1:24 6 8 mph 1012mb 56f 62f
1:18 6 7 mph 1012.1mb 56f 63f
1:12 2 2 mph 1012.1mb 56f 63f
1:06  -  6 mph 1012.1mb 56f 63f
1:00 5 7 mph 1012.2mb 56f 63f
12:54 5 7 mph 1012.3mb 57f 63f
12:48 5 6 mph 1012.4mb 57f 63f
12:42  -  2 mph 1012.5mb 57f 63f
12:36 2 6 mph 1012.5mb 57f 63f
12:30 6 7 mph 1012.5mb 57f 63f
12:24 6 8 mph 1012.6mb 57f 63f
12:18 2 6 mph 1012.6mb 57f 63f
12:12 2 6 mph 1012.6mb 57f 63f
12:06 2 3 mph 1012.7mb 57f 63f
12:00  -  3 mph 1012.8mb 57f 63f
Ter 05/23 11:54 1 6 mph 1012.9mb 57f 63f
11:48 5 6 mph 1012.9mb - -
11:42 5 7 mph 1012.9mb - -
11:36 3 5 mph 1012.9mb - -
11:30 2 5 mph 1012.9mb 57f 63f
11:24 5 6 mph 1012.9mb 57f 63f
11:18 2 5 mph 1013mb 57f 64f
11:12 5 7 mph 1013mb 57f 63f
11:06 3 6 mph 1013mb 57f 64f
11:00 3 7 mph 1013mb 57f 64f
10:54 5 7 mph 1012.9mb 57f 64f
10:48 2 3 mph 1012.8mb 57f 64f
10:42 3 5 mph 1012.9mb 57f 64f
10:36 5 6 mph 1012.9mb 57f 64f
10:30 2 6 mph 1012.9mb 57f 64f
10:24 5 6 mph 1012.8mb 57f 64f
10:18 2 6 mph 1012.8mb 57f 64f
10:12 3 5 mph 1012.8mb 57f 64f
10:06 3 6 mph 1012.7mb 57f 64f
10:00 6 7 mph 1012.7mb 57f 64f
9:54 3 5 mph 1012.7mb 58f 64f
9:48 2 7 mph 1012.6mb 58f 64f
9:42 2 6 mph 1012.5mb 58f 64f
9:36 2 3 mph 1012.5mb 59f 64f
9:30 3 5 mph 1012.6mb 59f 64f
9:24 1 5 mph 1012.6mb 60f 64f
9:18 1 7 mph 1012.6mb 61f 64f
9:12 3 6 mph 1012.5mb 61f 64f
9:06 3 6 mph 1012.6mb 62f 64f
9:00 3 8 mph 1012.7mb 62f 64f
8:54 2 3 mph 1012.7mb 62f 64f
8:48 2 6 mph 1012.6mb 62f 64f
8:42 3 5 mph 1012.5mb 61f 64f
8:36 5 6 mph 1012.5mb 61f 64f
8:30 3 6 mph 1012.6mb 60f 64f
8:24 2 5 mph 1012.4mb 61f 64f
8:18 3 5 mph 1012.3mb 61f 64f
8:12 3 7 mph 1012.4mb 62f 65f
8:06 5 7 mph 1012.3mb 62f 65f
8:00 6 7 mph 1012.2mb 62f 65f
7:54 5 6 mph 1012.2mb 62f 65f
7:48 5 7 mph 1012.1mb 62f 65f
7:42 6 7 mph 1012.1mb 62f 65f
7:36 6 7 mph 1012.1mb 64f 65f
7:30 6 6 mph 1012mb 62f 65f
7:24 6 8 mph 1012mb 60f 65f
7:18 7 7 mph 1011.9mb 63f 65f
7:12 6 8 mph 1011.9mb 63f 65f
7:06 7 8 mph 1011.8mb 65f 65f
7:00 7 8 mph 1011.8mb 66f 65f
6:48 8 8 mph - - -
6:42 8 9 mph 1011.8mb 66f 65f
6:36 7 8 mph 1011.9mb 66f 65f
6:30 8 8 mph 1011.9mb 66f -
6:24 7 8 mph 1011.9mb 66f 65f
6:18 7 8 mph 1012mb 66f 64f
6:12 7 9 mph 1012.1mb 66f 64f
6:06 7 9 mph 1012.2mb 66f 65f
6:00 7 8 mph 1012.1mb 66f 65f
5:48 7 8 mph - - -
5:42 6 8 mph 1012.2mb 66f 65f
5:36 7 7 mph 1012.1mb 66f 65f
5:30 6 7 mph 1012.2mb 66f -
5:24 5 6 mph 1012.2mb 65f 65f
5:18 5 6 mph - - -
5:12 5 6 mph 1012.3mb 65f 65f
5:06 5 6 mph 1012.3mb 66f 65f
5:00 2 5 mph 1012.4mb 66f -
4:54 3 6 mph 1012.5mb 66f 66f
4:48 5 7 mph - - -
4:42 5 7 mph 1012.7mb 67f 65f
4:36 6 7 mph 1012.8mb 67f 65f
4:30 5 7 mph 1012.8mb 67f 65f
4:24 5 7 mph 1012.9mb 67f 65f
4:18 5 6 mph - - -
4:12 6 6 mph 1012.9mb 67f 64f
4:06 3 6 mph 1012.9mb 66f 65f
4:00 5 6 mph 1013.1mb 66f -
3:48 5 6 mph - - -
3:42 5 6 mph 1013.5mb 66f 64f
3:36 5 5 mph 1013.4mb 66f 65f
3:30 3 6 mph 1013.5mb 66f -
3:24 3 6 mph 1013.5mb 66f 66f
3:18 3 5 mph 1013.5mb 66f 66f
3:12 3 5 mph 1013.6mb 65f 66f
3:06 3 5 mph 1013.6mb 65f 65f
3:00 3 5 mph 1013.6mb 65f 65f
2:54 5 7 mph 1013.7mb 64f 64f
2:48 6 8 mph - - -
2:42 6 8 mph 1013.7mb 62f 64f
2:36 8 9 mph 1013.7mb 62f 64f
2:30 7 10 mph 1013.8mb 61f 64f
2:24 9 11 mph 1013.8mb 60f 64f
2:18 9 13 mph 1013.8mb 62f 64f
2:12 9 13 mph 1013.9mb 62f 64f
2:06 8 10 mph 1014.1mb 58f 64f
2:00 9 11 mph 1014.2mb 56f 64f
1:54 8 10 mph 1014.1mb 56f 64f
1:48 9 11 mph 1014.2mb 56f 64f
1:42 9 13 mph 1014.2mb 56f 64f
1:36 10 13 mph 1014.3mb 56f 64f
1:30 11 13 mph 1014.2mb 56f 63f
1:24 11 14 mph 1014.1mb 56f 63f
1:18 11 14 mph 1014.1mb 56f 63f
1:12 10 13 mph 1014.1mb 56f 63f
1:06 10 14 mph 1014.2mb 57f 64f
1:00 10 13 mph 1014.3mb 57f 64f
12:54 11 14 mph 1014.3mb 57f 63f
12:48 10 15 mph 1014.3mb 57f 64f
12:42 13 14 mph 1014.3mb 58f 64f
12:36 10 13 mph 1014.3mb 58f 64f
12:30 11 13 mph 1014.3mb 58f 64f
12:24 10 14 mph 1014.4mb 58f 64f
12:18 10 13 mph 1014.3mb 58f 64f
12:12 10 13 mph 1014.4mb 58f 64f
12:06 9 11 mph 1014.4mb 58f 65f
12:00 7 11 mph 1014.4mb 58f 65f
11:54 8 11 mph 1014.4mb 59f 64f
11:48 10 13 mph 1014.3mb 59f 64f
11:42 9 13 mph 1014.3mb 59f 64f
11:36 10 13 mph 1014.4mb 59f 64f
11:30 9 11 mph 1014.3mb 59f 65f
11:24 9 11 mph 1014.2mb 59f 65f
11:18 10 11 mph 1014.1mb 59f 64f
11:12 9 11 mph 1014.1mb 59f 64f
11:06 8 11 mph 1014.1mb 59f 64f
11:00 11 13 mph 1014.1mb 60f 64f
10:54 9 11 mph 1014.1mb 58f 64f
10:48 9 11 mph 1014mb 58f 64f
10:42 8 10 mph 1013.9mb 59f 64f
10:36 8 9 mph 1013.8mb 59f 64f
10:30 8 10 mph 1013.8mb 58f 64f
10:24 7 9 mph 1013.7mb 58f 65f
10:18 6 9 mph 1013.5mb 58f 65f
10:12 7 8 mph 1013.4mb 58f 65f
10:06 7 8 mph 1013.4mb 58f 65f
10:00 6 7 mph 1013.4mb 58f 65f
9:54 5 8 mph 1013.4mb 58f 65f
9:48 6 8 mph 1013.5mb 58f 65f
9:42 5 6 mph 1013.4mb 59f 66f
9:36 3 6 mph 1013.2mb 59f 65f
9:30 5 5 mph 1013.3mb 61f 66f
9:24 5 5 mph 1013.4mb 61f 66f
9:18 3 5 mph 1013.3mb 62f 65f
9:12 5 6 mph 1013.1mb 62f 65f
9:06 5 6 mph 1013mb 63f 65f
9:00 5 6 mph 1013.1mb 63f 65f
8:54 5 6 mph 1013.1mb 62f 64f
8:48 6 6 mph - - -
8:42 5 7 mph 1013.2mb 62f 64f
8:36 5 6 mph 1013.3mb 62f 64f
8:30 5 8 mph 1013.4mb 62f 63f
8:24 6 6 mph 1013.3mb 63f 63f
8:18 5 7 mph 1013.5mb 63f 63f
8:12 3 7 mph 1013.5mb 63f 63f
8:06 5 8 mph 1013.5mb 62f 63f
8:00 6 10 mph 1013.4mb 62f 62f
7:54 5 7 mph 1013.4mb 61f 63f
7:48 6 8 mph 1013.3mb 61f 63f
7:42 3 8 mph 1013.4mb 60f 63f
7:36 7 9 mph 1013.4mb 59f 62f
7:30 8 10 mph 1013.4mb 57f 62f
7:24 8 10 mph 1013.4mb 58f 63f
7:18 8 9 mph 1013.5mb 57f 63f
7:12 6 8 mph 1013.5mb 56f 62f
7:06 5 6 mph 1013.6mb 56f 63f
7:00 3 7 mph 1013.6mb 56f 62f
6:54 7 8 mph 1013.5mb 56f 62f
6:48 5 6 mph 1013.5mb 55f 62f
6:42 3 5 mph 1013.5mb 55f 62f
6:36 5 6 mph 1013.5mb 55f 62f
6:30 5 6 mph 1013.5mb 55f 62f
6:24 6 7 mph 1013.4mb 55f 62f
6:18 6 8 mph - - -
6:12 6 7 mph 1013.3mb 55f 62f
6:06 2 6 mph 1013.3mb 55f 63f
6:00 3 5 mph 1013.2mb 55f 63f
5:54 2 3 mph 1013.2mb 55f 63f
5:48 5 6 mph 1013.2mb 55f 63f
5:42 5 6 mph 1013.2mb 55f 63f
5:36 5 6 mph 1013.1mb 55f 63f
5:30 3 7 mph 1013.1mb 55f 63f
5:24 3 5 mph 1013.1mb 55f 63f
5:18 5 6 mph 1013.1mb 55f 63f
5:12 3 6 mph 1013.1mb 55f 63f
5:06 3 5 mph 1013.2mb 55f 63f
5:00 3 5 mph 1013.2mb 55f 63f
4:54 1 2 mph 1013.2mb 55f 63f
4:48 2 2 mph 1013.2mb 55f 63f
4:42 3 3 mph 1013.2mb 56f 63f
4:36  -  5 mph 1013.1mb 56f 63f
4:30 3 6 mph 1013.1mb 56f 63f
4:24 5 6 mph 1013.2mb 56f 63f
4:18 5 7 mph 1013.2mb 56f 63f
4:12 6 6 mph 1013.1mb 56f 64f
4:06 2 5 mph 1013mb 57f 64f
4:00 5 7 mph 1013mb 57f 64f
3:54 3 7 mph 1013mb 57f 64f
3:48 5 6 mph 1013mb 58f 64f
3:42 5 6 mph 1013mb 58f 64f
3:36 6 7 mph 1013.1mb 58f 64f
3:30 6 6 mph 1013.1mb 58f 64f
3:24 5 6 mph 1013.2mb 59f 64f
3:18 3 6 mph - - -
3:12 2 3 mph 1013.2mb 59f 64f
3:06 2 6 mph 1013.2mb 59f 64f
3:00 6 7 mph 1013.2mb 59f 64f
2:54 2 5 mph 1013.2mb 60f 64f
2:48 3 6 mph 1013.3mb 60f 64f
2:42 5 7 mph 1013.4mb 61f 64f
2:36 5 8 mph 1013.4mb 60f 64f
2:30 3 6 mph 1013.4mb 60f 64f
2:24 7 8 mph 1013.5mb 60f 64f
2:18 6 8 mph 1013.6mb 60f 64f
2:12 3 5 mph 1013.6mb 60f 64f
2:06 2 6 mph 1013.7mb 60f 64f
2:00 5 7 mph 1013.8mb 60f 64f
1:54 3 7 mph 1013.8mb 60f 64f
1:48 6 7 mph 1013.8mb 61f 64f
1:42 6 8 mph 1013.8mb 62f 64f
1:36 6 7 mph 1014mb 62f 64f
1:30 3 7 mph 1014mb 63f 64f
1:24 5 6 mph 1014mb 63f 64f
1:18 6 7 mph 1014mb 63f 64f
1:12 3 8 mph 1014.1mb 63f 64f
1:06 5 7 mph 1014.1mb 64f 64f
1:00 5 6 mph 1014.2mb 64f 64f
12:54 5 6 mph 1014.2mb 64f 64f
12:48 1 2 mph 1014.2mb 64f 64f
12:42 2 5 mph 1014.2mb 64f 64f
12:36 2 5 mph 1014.3mb 64f 64f
12:30 6 8 mph 1014.3mb 65f 64f
12:24 6 7 mph 1014.3mb 66f 64f
12:18 3 6 mph 1014.4mb 66f 64f
12:12 2 6 mph 1014.3mb 66f 64f
12:06 5 6 mph 1014.3mb 66f 64f
12:00 3 6 mph 1014.3mb 66f 64f
Seg 05/22 11:54 2 5 mph 1014.2mb 66f 64f
11:48 3 6 mph 1014.3mb 66f 64f
11:42 1 6 mph 1014.4mb 66f -
11:36 5 7 mph 1014.4mb 66f -
11:30 3 6 mph 1014.4mb 65f 64f
11:24 3 6 mph 1014.5mb 65f 64f
11:18 1 2 mph 1014.4mb 65f 64f
11:12  -  2 mph 1014.3mb 64f 63f
11:06 1 2 mph 1014.3mb 64f 63f
11:00  -  3 mph 1014.3mb 62f 63f
10:54 2 5 mph 1014.4mb 60f 63f
10:48 1 3 mph 1014.4mb 58f 63f
10:42 1 5 mph 1014.4mb 57f 63f
10:36 3 5 mph 1014.4mb 57f 63f
10:30 3 6 mph 1014.4mb 56f 63f
10:24 2 3 mph 1014.3mb 56f 63f
10:18 5 6 mph 1014.2mb 56f 63f
10:12 2 5 mph 1014.2mb 56f 63f
10:06 2 3 mph 1014.1mb 56f 63f
10:00 2 3 mph 1014.1mb 56f 63f
9:54 3 5 mph 1014.1mb 56f 63f
9:48 1 3 mph 1014.1mb 56f 63f
9:42 2 3 mph 1014.2mb 57f 63f
9:36 1 5 mph 1014.1mb 57f 63f
9:30 2 5 mph 1014mb 57f 63f
9:24 2 3 mph 1014mb 57f 63f
9:18 3 5 mph 1013.9mb 57f 63f
9:12 3 5 mph 1013.9mb 57f 63f
9:06 1 3 mph 1014mb 57f 63f
9:00 1 2 mph 1013.9mb 57f 63f
8:54 3 5 mph 1013.9mb 57f 63f
8:48 3 6 mph - - -
8:42  -  6 mph 1013.8mb 57f 63f
8:36 3 5 mph 1013.8mb 58f 64f
8:30 3 5 mph 1013.8mb 58f 64f
8:24  -  5 mph 1013.8mb 58f 64f
8:18 3 5 mph 1013.8mb 58f 63f
8:12 2 5 mph 1013.7mb 59f 64f
8:06 5 6 mph 1013.7mb 59f 64f
8:00 3 7 mph 1013.7mb 60f 64f
7:54 6 7 mph 1013.6mb 60f 64f
7:48 3 5 mph 1013.5mb 60f 64f
7:42 5 7 mph 1013.4mb 61f 64f
7:36 5 6 mph 1013.3mb 61f 64f
7:30 5 7 mph 1013.3mb 62f 64f
7:24 6 8 mph 1013.2mb 62f 64f
7:18 5 7 mph 1013.1mb 62f 64f
7:12 6 8 mph 1013.1mb 62f 64f
7:06 3 7 mph 1013mb 63f 64f
7:00 5 7 mph 1012.9mb 64f 64f
6:54 7 8 mph 1012.9mb 64f 64f
6:48 6 8 mph - - -
6:42 3 8 mph 1012.9mb 66f 64f
6:36 5 7 mph 1012.9mb 67f 64f
6:30 7 8 mph 1012.9mb 66f -
6:24 5 7 mph 1012.9mb 65f 64f
6:18 6 8 mph - - -
6:12 7 8 mph 1012.9mb 66f 64f
6:06 5 9 mph 1012.9mb 67f 64f
6:00 5 8 mph 1012.8mb 67f -
5:54 7 9 mph 1012.9mb 67f 64f
5:48 8 10 mph 1012.9mb 67f 64f
5:42 5 8 mph 1012.9mb 67f 64f
5:36 9 10 mph 1013mb 66f 64f
5:30 7 9 mph 1013mb 66f -
5:24 7 9 mph 1013mb 67f 65f
5:18 7 11 mph - - -
5:12 6 10 mph 1012.9mb 68f 65f
5:06 6 10 mph 1012.9mb 68f 65f
5:00 7 10 mph - - -
4:54 6 9 mph 1012.9mb 68f 65f
4:48 7 11 mph - - -
4:42 6 9 mph 1013.1mb 67f 65f
4:36 6 10 mph 1013.1mb 67f 65f
4:30 6 10 mph 1013mb 66f 65f
4:24 7 10 mph 1013mb 68f 65f
4:12 7 10 mph 1013mb 68f 65f
4:06 7 9 mph 1013mb 68f 65f
4:00 7 10 mph 1013mb 68f -
3:54 9 10 mph 1013mb 68f 65f
3:48 8 10 mph - - -
3:42 7 9 mph 1013.2mb 69f 65f
3:36 7 9 mph 1013.2mb 69f 65f
3:30 7 9 mph 1013.2mb 69f -
3:24 6 8 mph 1013.2mb 68f 65f
3:18 7 9 mph 1013.3mb 68f 66f
3:12 7 8 mph 1013.3mb 68f 66f
3:06 6 8 mph 1013.4mb 68f 65f
3:00 6 7 mph 1013.4mb 69f 65f
2:54 5 7 mph 1013.5mb 68f 66f
2:48 6 7 mph - - -
2:42 6 7 mph 1013.6mb 68f 65f
2:36 6 7 mph 1013.6mb 68f 65f
2:30 6 8 mph 1013.6mb 68f 65f
2:24 6 8 mph 1013.6mb 67f 65f
2:18 7 9 mph 1013.7mb 67f 64f
2:12 6 8 mph 1013.7mb 67f 65f
2:06 7 8 mph 1013.8mb 67f 64f
2:00 6 7 mph 1013.8mb 67f 65f
1:54 7 8 mph 1013.8mb 65f 64f
1:48 7 9 mph 1013.8mb 63f 64f
1:42 7 8 mph 1013.9mb 59f 65f
1:36 6 7 mph 1013.9mb 57f 65f
1:30 5 9 mph 1014mb 56f 64f
1:24 7 9 mph 1014.1mb 57f 64f
1:18 8 9 mph 1014.1mb 57f 65f
1:12 6 9 mph 1014.2mb 57f 65f
1:06 6 8 mph 1014.3mb 57f 65f
1:00 6 7 mph 1014.3mb 57f 65f
12:54 6 8 mph 1014.4mb 57f 65f
12:48 6 8 mph 1014.3mb 58f 65f
12:42 6 9 mph 1014.3mb 58f 66f
12:36 5 8 mph 1014.4mb 58f 66f
12:30 6 8 mph 1014.5mb 58f 65f
12:24 6 8 mph 1014.6mb 58f 65f
12:18 5 7 mph 1014.6mb 58f 65f
12:12 6 7 mph 1014.6mb 59f 65f
12:06 7 8 mph 1014.6mb 60f 65f
12:00 3 6 mph 1014.6mb 60f 66f
11:54 5 6 mph 1014.7mb 60f 65f
11:48 5 7 mph 1014.7mb 61f 65f
11:42 5 7 mph 1014.7mb 60f 65f
11:36 6 7 mph 1014.8mb 61f 65f
11:30 6 7 mph 1014.8mb 64f 64f
11:24 5 6 mph 1014.9mb 65f 65f
11:18 3 6 mph 1014.9mb 65f 64f
11:12 5 7 mph 1014.9mb 64f 64f
11:06 6 7 mph 1014.9mb 64f 64f
11:00 3 6 mph 1014.9mb 63f 65f
10:54 3 5 mph 1014.9mb 63f 64f
10:48 3 5 mph 1014.9mb 66f 64f
10:42 3 5 mph 1014.9mb 66f 64f
10:36 5 6 mph 1014.9mb 65f 64f
10:30 6 7 mph 1014.9mb 65f 64f
10:24 6 8 mph 1014.8mb 63f 64f
10:18 5 7 mph 1014.8mb 61f 64f
10:12 5 7 mph 1014.7mb 62f 64f
10:06 5 6 mph 1014.7mb 62f 65f
10:00 3 5 mph 1014.7mb 60f 65f
9:54 2 3 mph 1014.6mb 63f 64f
9:48 3 5 mph 1014.6mb 62f 64f
9:42 3 5 mph 1014.6mb 62f 64f
9:36 3 6 mph 1014.6mb 61f 64f
9:30 2 6 mph 1014.6mb 61f 64f
9:24 5 6 mph 1014.6mb 60f 64f
9:18 5 6 mph 1014.6mb 60f 64f
9:12 3 5 mph 1014.5mb 61f 64f
9:06 2 3 mph 1014.5mb 62f 64f
9:00 2 3 mph 1014.5mb 63f 64f
8:54 2 5 mph 1014.6mb 61f 63f
8:48 5 5 mph 1014.6mb 61f 63f
8:42 3 5 mph 1014.6mb 61f 63f
8:36 2 5 mph 1014.5mb 61f 63f
8:30 2 2 mph 1014.5mb 60f 63f
8:24 2 3 mph 1014.5mb 60f 63f
8:18 2 6 mph 1014.5mb 60f 63f
8:12 3 5 mph 1014.4mb 60f 63f
8:06 3 6 mph 1014.3mb 61f 63f
8:00 2 3 mph 1014.3mb 61f 63f
7:54 2 3 mph 1014.2mb 61f 63f
7:48 1 3 mph 1014.2mb 61f 62f
7:42 2 5 mph 1014.2mb 61f 62f
7:36 3 5 mph 1014.1mb 61f 62f
7:30 3 5 mph 1014mb 61f 62f
7:24 2 5 mph 1014mb 61f 62f
7:18 1 2 mph 1013.9mb 61f 62f
7:12  -  2 mph 1013.9mb 61f 62f
7:06 3 3 mph 1013.8mb 61f 62f
7:00  -  3 mph 1013.7mb 62f 62f
6:54 3 5 mph 1013.7mb 63f 62f
6:48 1 3 mph 1013.6mb 63f 62f
6:30 5 7 mph 1013.4mb 65f 62f
6:24 5 7 mph 1013.3mb 65f 62f
6:18 3 6 mph 1013.3mb 64f 62f
6:12 5 6 mph 1013.2mb 63f 62f
6:06 2 5 mph 1013.1mb 63f 62f
6:00 5 6 mph 1012.9mb 62f 62f
5:54 3 6 mph 1012.9mb 62f 62f
5:48 6 8 mph 1012.8mb 62f 62f
5:42 6 7 mph 1012.7mb 61f 62f
5:36 5 8 mph 1012.7mb 60f 62f
5:30 5 7 mph 1012.7mb 62f 62f
5:24 6 7 mph 1012.6mb 63f 62f
5:18 5 6 mph 1012.6mb 62f 63f
5:12 5 7 mph 1012.6mb 62f 63f
5:06 6 8 mph 1012.6mb 62f 63f
5:00 6 7 mph 1012.5mb 60f 63f
4:54 6 7 mph 1012.5mb 60f 63f
4:48 5 7 mph 1012.5mb 59f 63f
4:42 6 7 mph 1012.5mb 60f 63f
4:36 6 7 mph 1012.4mb 60f 63f
4:30 6 7 mph 1012.4mb 60f 64f
4:24 5 9 mph 1012.4mb 61f 63f
4:18 6 6 mph 1012.4mb 61f 63f
4:12 6 6 mph 1012.4mb 61f 63f
4:06  -  6 mph 1012.4mb 62f 63f
4:00 6 7 mph 1012.4mb 62f 63f
3:54 6 7 mph 1012.3mb 62f 63f
3:48 3 5 mph 1012.3mb 62f 64f
3:42 3 5 mph 1012.3mb 61f 64f
3:36 3 7 mph 1012.4mb 61f 64f
3:30 3 5 mph 1012.4mb 61f 64f
3:24 3 5 mph 1012.4mb 62f 64f
3:18 1 6 mph 1012.5mb 62f 64f
3:12 3 5 mph 1012.5mb 63f 64f
3:06 5 6 mph 1012.5mb 64f 64f
3:00 2 5 mph 1012.6mb 64f 64f
2:54 5 5 mph 1012.7mb 65f 64f
2:48 3 3 mph 1012.8mb 65f 64f
2:42 3 5 mph 1012.8mb 65f 64f
2:36 3 5 mph 1012.8mb 66f 64f
2:30 2 3 mph 1012.9mb 66f 64f
2:24  -  1 mph 1012.9mb 66f 64f
2:18  -  1 mph 1013mb 66f 64f
2:12  -  2 mph 1013.1mb 66f 64f
2:06 1 2 mph 1013.1mb 66f 64f
2:00 2 3 mph 1013.2mb 66f 64f
1:54 2 3 mph 1013.3mb 66f 64f
1:48 2 5 mph 1013.4mb 66f 64f
1:42 3 6 mph 1013.5mb 66f 64f
1:36 2 6 mph 1013.5mb 66f 64f
1:30 5 7 mph 1013.5mb 67f 64f
1:24 6 7 mph 1013.6mb 67f 64f
1:18 1 5 mph 1013.6mb 67f 64f
1:12 6 8 mph 1013.6mb 67f 64f
1:06 2 3 mph 1013.6mb 66f 64f
1:00 3 6 mph 1013.7mb 66f 64f
12:54 5 6 mph 1013.7mb 65f 64f
12:48 2 3 mph 1013.7mb 65f 64f
12:42  -  3 mph 1013.7mb 65f 64f
12:36 3 5 mph 1013.8mb 65f 64f
12:30 3 5 mph 1013.8mb 65f 65f
12:24 2 3 mph 1013.9mb 66f 64f
12:18 2 3 mph 1014mb 65f 64f
12:12 2 6 mph 1014mb 65f 64f
12:06 3 6 mph 1014mb 64f 64f
12:00 2 5 mph 1014mb 64f 65f
Dom 05/21 11:54 3 5 mph 1014.1mb 63f 65f
11:48 3 6 mph - - -
11:42 3 6 mph 1014.2mb 64f 65f
11:36 5 6 mph 1014.2mb 63f 65f
11:30 5 5 mph 1014.3mb 64f 65f
11:24  -  3 mph 1014.3mb 64f 65f
11:18 2 5 mph 1014.3mb 64f 65f
11:12 5 7 mph 1014.3mb 64f 65f
11:06 5 7 mph 1014.3mb 63f 65f
11:00 2 6 mph 1014.3mb 64f 65f
10:54 2 6 mph 1014.3mb 63f 65f
10:48 2 6 mph 1014.3mb 63f 65f
10:42  -  2 mph 1014.3mb 63f 65f
10:36 2 6 mph 1014.2mb 63f 65f
10:30 5 5 mph 1014.1mb 63f 65f
10:24 1 2 mph 1014.1mb 62f 65f
10:18  -  5 mph 1014.1mb 61f 65f
10:12 3 5 mph 1014mb 58f 65f
10:06 3 5 mph 1014mb 58f 65f
10:00 3 3 mph 1013.8mb 58f 65f
9:54 2 3 mph 1013.8mb 58f 66f
9:48 2 3 mph 1013.7mb 58f 66f
9:42 2 5 mph 1013.8mb 58f 66f
9:36 3 3 mph 1013.7mb 58f 66f
9:30 2 5 mph 1013.6mb 58f 66f
9:24 3 5 mph 1013.6mb 58f 66f
9:18 3 5 mph 1013.5mb 58f 66f
9:12 5 6 mph 1013.4mb 58f 66f
9:06 3 6 mph 1013.4mb 59f 66f
9:00 5 6 mph 1013.3mb 59f 66f
8:54 6 7 mph 1013.3mb 59f 66f
8:48 5 6 mph - - -
8:42 5 6 mph 1013.3mb 59f 66f
8:36 5 6 mph 1013.2mb 59f 66f
8:30 3 6 mph 1013.2mb 59f 66f
8:24 3 5 mph 1013.1mb 59f 66f
8:18 5 6 mph 1013mb 60f 66f
8:12 5 6 mph 1013mb 60f 66f
8:06 5 6 mph 1012.9mb 60f 67f
8:00 3 5 mph 1012.9mb 60f 67f
7:54 3 6 mph 1012.9mb 61f 67f
7:48 3 5 mph 1012.8mb 60f 67f
7:42 2 3 mph 1012.7mb 61f 67f
7:36 2 3 mph 1012.6mb 61f 67f
7:30 3 5 mph 1012.5mb 61f 67f
7:24 3 5 mph 1012.5mb 62f 67f
7:18 2 5 mph - - -
7:12 5 6 mph 1012.4mb 62f 67f
7:06 3 5 mph 1012.4mb 62f 67f
7:00 3 3 mph 1012.4mb 62f 68f
6:54 2 3 mph 1012.4mb 62f 68f
6:48 2 3 mph 1012.3mb - -
6:42 2 3 mph 1012.3mb 64f 69f
6:36 1 2 mph 1012.2mb 64f 68f
6:30 2 3 mph 1012.2mb - -
6:24 2 3 mph 1012.3mb 66f 69f
6:18 1 3 mph 1012.3mb 66f 69f
6:12 2 3 mph 1012.4mb 67f 69f
6:06 2 3 mph 1012.3mb 67f 69f
6:00 2 5 mph 1012.3mb - -
5:54 3 5 mph 1012.4mb 68f 69f
5:48 2 3 mph - - -
5:42 2 2 mph 1012.4mb 68f 70f
5:36 2 3 mph 1012.5mb 68f 70f
5:30 2 3 mph 1012.5mb 68f -
5:24 2 5 mph 1012.5mb 67f 70f
5:18 3 5 mph 1012.5mb 67f 69f
5:12 3 5 mph 1012.4mb 66f 69f
5:06 3 6 mph 1012.4mb 65f 69f
5:00 5 6 mph 1012.5mb 65f 68f
4:54 5 6 mph 1012.5mb 64f 68f
4:48 5 6 mph - - -
4:42 6 7 mph 1012.5mb 64f 68f
4:36 5 6 mph 1012.5mb 64f 68f
4:30 5 6 mph 1012.6mb 65f 68f
4:24 5 6 mph 1012.6mb 67f 68f
4:18 6 7 mph - - -
4:12 6 7 mph 1012.6mb 67f 68f
4:06 5 6 mph 1012.5mb 67f 68f
4:00 5 6 mph 1012.6mb 67f 68f
3:54 5 6 mph 1012.6mb 67f 69f
3:48 3 6 mph - - -
3:42 3 6 mph 1012.7mb 66f 70f
3:36 5 6 mph 1012.7mb 66f 69f
3:30 5 6 mph 1012.8mb 66f 70f
3:24 5 6 mph 1012.7mb 65f 69f
3:18 5 7 mph - - -
3:12 6 7 mph 1012.8mb 65f 69f
3:06 5 7 mph 1012.7mb 64f 69f
3:00 5 6 mph 1012.7mb 63f 70f
2:54 5 6 mph 1012.7mb 63f 69f
2:48 3 7 mph - - -
2:42 6 7 mph 1012.7mb 64f 70f
2:36 5 6 mph 1012.7mb 63f 70f
2:30 5 6 mph 1012.7mb 63f 71f
2:24 3 5 mph 1012.7mb 63f 71f
2:18 2 3 mph 1012.6mb 63f 71f
2:12  -  2 mph 1012.6mb 62f 71f
2:06  -  2 mph 1012.6mb 62f 71f
2:00 2 3 mph 1012.7mb 61f 69f
1:54 2 3 mph 1012.7mb 60f 69f
1:48 2 3 mph 1012.7mb 60f 69f
1:42 3 6 mph 1012.7mb 59f 69f
1:36 3 5 mph 1012.7mb 59f 69f
1:30 3 5 mph 1012.6mb 59f 69f
1:24 3 6 mph 1012.6mb 59f 69f
1:18 3 6 mph 1012.6mb 59f 69f
1:12 5 6 mph 1012.6mb 60f 68f
1:06 5 7 mph 1012.6mb 61f 69f
1:00 5 6 mph 1012.7mb 61f 68f
12:54 5 6 mph 1012.6mb 62f 68f
12:48 5 7 mph 1012.6mb 62f 68f
12:42 5 6 mph 1012.6mb 62f 68f
12:36 5 5 mph 1012.6mb 62f 68f
12:30 3 6 mph 1012.7mb 64f 68f
12:24 5 6 mph 1012.7mb 65f 68f
12:18 3 3 mph 1012.7mb 65f 68f
12:12 2 3 mph 1012.7mb 65f 68f
12:06 2 3 mph 1012.7mb 65f 67f
12:00 2 3 mph 1012.8mb 65f 67f
11:54 3 3 mph 1012.8mb 65f 67f
11:48 2 3 mph 1012.8mb 64f 67f
11:42 3 5 mph 1012.9mb 64f 67f
11:36 3 3 mph 1012.9mb 64f 67f
11:30 2 3 mph 1013mb 65f 67f
11:24 2 3 mph 1013mb 65f 67f
11:18 2 2 mph 1012.9mb 65f 68f
11:12  -  3 mph 1012.9mb 65f 68f
11:06 1 3 mph 1012.9mb 65f 67f
10:54 3 5 mph 1012.8mb 65f 66f
10:48 3 3 mph 1012.7mb 65f 66f
10:42 2 2 mph 1012.8mb 64f 67f
10:36 1 2 mph 1012.8mb 63f 67f
10:30 1 3 mph 1012.9mb 63f 67f
10:24  -  3 mph 1012.9mb 64f 67f
10:18 2 3 mph 1012.9mb 64f 67f
10:12 3 5 mph 1012.9mb 64f 67f
10:06 3 5 mph 1012.9mb 64f 67f
9:54 3 5 mph 1012.7mb 65f 67f
9:48 2 3 mph 1012.7mb 64f 67f
9:42 1 3 mph 1012.6mb 64f 67f
9:36 2 3 mph 1012.7mb 65f 67f
9:30 1 3 mph 1012.7mb 65f 67f
9:24 3 3 mph 1012.7mb 65f 66f
9:18 5 6 mph 1012.7mb 66f 66f
9:12  -  1 mph 1012.7mb 66f 68f
9:06 1 3 mph 1012.7mb 66f 67f
9:00 2 5 mph 1012.6mb 66f 67f
8:54 2 5 mph 1012.6mb 65f 67f
8:48 1 3 mph 1012.6mb 65f 66f
8:42 2 3 mph 1012.6mb 65f 66f
8:36 2 3 mph 1012.6mb 65f 66f
8:30  -  3 mph 1012.6mb 65f 67f
8:24 3 5 mph 1012.5mb 64f 66f
8:18 2 3 mph 1012.4mb 64f 67f
8:12  -  2 mph 1012.4mb 65f 67f
8:06 1 2 mph 1012.3mb 64f 67f
8:00 1 2 mph 1012.2mb 64f 67f
7:54  -  2 mph 1012.2mb 65f 67f
7:48 1 2 mph 1012.1mb 65f 67f
7:36 1 2 mph 1012.1mb 64f 66f
7:30  -  2 mph 1012mb 63f 66f
7:24  -  2 mph 1012mb 62f 66f
7:18 1 2 mph 1012mb 61f 66f
7:12  -  1 mph 1012mb 61f 66f
7:06  -  3 mph 1011.9mb 60f 66f
7:00 2 2 mph 1011.9mb 61f 65f
6:54 1 3 mph 1011.9mb 62f 65f
6:48 2 2 mph 1011.9mb 61f 65f
6:42  -  1 mph 1011.7mb 60f 65f
6:36 1 2 mph 1011.7mb 59f 65f
6:30 2 2 mph 1011.6mb 59f 65f
6:24  -  1 mph 1011.5mb 59f 65f
6:18  -  1 mph - - -
6:12  -  1 mph 1011.3mb 60f 65f
6:06 1 1 mph 1011.3mb 60f 65f
6:00 1 1 mph 1011.2mb 60f 64f
5:54 1 2 mph 1011.2mb 60f 64f
5:48  -  2 mph 1011.2mb 62f 64f
5:42  -  1 mph 1011.1mb 64f 64f
5:36  -  1 mph 1011.1mb 63f 64f
5:30  -  0 mph 1010.9mb 62f 64f
5:24  -  0 mph 1010.9mb 62f 64f
5:18  -  2 mph 1010.8mb 63f 64f
5:12  -  2 mph 1010.8mb 64f 64f
5:06 1 2 mph 1010.7mb 64f 64f
5:00  -  1 mph 1010.6mb 64f 64f
4:54  -  0 mph 1010.6mb 65f 64f
4:48  -  1 mph 1010.5mb 63f 64f
4:42 1 3 mph 1010.5mb 63f 64f
4:36 2 2 mph 1010.5mb 62f 64f
4:30 1 2 mph 1010.5mb 64f 65f
4:24  -  2 mph 1010.4mb 65f 65f
4:18  -  2 mph - - -
4:12  -  0 mph 1010.5mb 65f 65f
4:06  -  1 mph 1010.5mb 64f 65f
4:00  -  1 mph 1010.5mb 64f 65f
3:54 1 2 mph 1010.5mb 64f 65f
3:48 1 2 mph 1010.5mb 64f 65f
3:42 1 2 mph 1010.5mb 62f 65f
3:36 1 1 mph 1010.6mb 60f 65f
3:30  -  2 mph 1010.6mb 61f 65f
3:24 1 1 mph 1010.6mb 60f 65f
3:18 1 1 mph 1010.6mb 62f 65f
3:12  -  2 mph 1010.7mb 64f 65f
3:06 1 2 mph 1010.6mb 63f 65f
3:00  -  2 mph 1010.6mb 64f 65f
2:54 2 2 mph 1010.7mb 66f 65f
2:48 2 2 mph 1010.7mb 66f 65f
2:42  -  2 mph 1010.8mb 66f 65f
2:36 1 2 mph 1010.8mb 66f 65f
2:30 2 2 mph 1010.8mb 66f 65f
2:24 2 3 mph 1010.8mb 66f 65f
2:18 3 5 mph 1010.7mb 66f 65f
2:06 2 2 mph 1010.6mb 66f 65f
2:00 2 2 mph 1010.6mb 66f 65f
1:54 2 3 mph 1010.7mb 66f 65f
1:48 3 5 mph 1010.7mb 66f 65f
1:42 5 5 mph 1010.7mb 66f 65f
1:36 1 2 mph 1010.7mb 66f 65f
1:30  -  0 mph 1010.8mb 65f 65f
1:24  -  1 mph 1010.8mb 65f 65f
1:18 1 2 mph 1010.7mb 65f 65f
1:12 1 1 mph 1010.8mb 65f 65f
1:06  -  1 mph 1010.9mb 65f 66f
1:00  -  1 mph 1010.9mb 65f 65f
12:54 1 2 mph 1010.9mb 65f 66f
12:48  -  1 mph - - -
12:42 1 2 mph 1011mb 65f 66f
12:36  -  1 mph 1011mb 65f 66f
12:30 1 1 mph 1011.1mb 65f 66f
12:24 1 2 mph 1011.1mb 65f 65f
12:18 2 2 mph 1011.1mb 65f 66f
12:12 2 2 mph 1011.2mb 65f 66f
12:06 2 3 mph 1011.2mb 65f 66f
12:00 2 5 mph 1011.2mb 65f 66f
Sáb 05/20 11:54 2 3 mph 1011.2mb 65f 67f
11:48 2 3 mph - - -
11:42 3 5 mph 1011.3mb 64f 67f
11:36 3 3 mph 1011.2mb 64f 67f
11:30 3 5 mph 1011.3mb 63f 67f
11:24 3 5 mph 1011.3mb 63f 67f
11:18 5 6 mph 1011.3mb 63f 67f
11:12 5 6 mph 1011.2mb 62f 67f
11:06 6 6 mph 1011.2mb 61f 67f
11:00 6 6 mph 1011.2mb 60f 67f
10:54 6 6 mph 1011.2mb 60f 67f
10:48 6 6 mph 1011.1mb 60f 67f
10:42 5 6 mph 1011.1mb 59f 67f
10:36 1 3 mph 1011mb 58f 67f
10:30 2 6 mph 1011mb 58f 67f
10:24 5 8 mph 1011mb 57f 67f
10:18 7 8 mph 1011mb 57f 67f
10:12 7 8 mph 1011mb 57f 67f
10:06 7 8 mph 1011mb 58f 67f
10:00 7 9 mph 1011mb 58f 68f
9:54 7 8 mph 1010.9mb 58f 68f
9:48 6 7 mph 1010.9mb 58f 68f
9:42 7 8 mph 1010.8mb 58f 68f
9:36 6 8 mph 1010.7mb 58f 68f
9:30 5 6 mph 1010.6mb 58f 69f
9:24 5 6 mph 1010.5mb 58f 69f
9:18 2 3 mph 1010.5mb 58f 69f
9:12  -  1 mph 1010.4mb 58f 69f
9:06  -  1 mph 1010.4mb 59f 69f
9:00  -  1 mph 1010.3mb 59f 69f
8:54  -  2 mph 1010.2mb 60f 69f
8:48 2 3 mph 1010.2mb 60f 69f
8:42 3 5 mph 1010.1mb 60f 69f
8:36 3 5 mph 1010.1mb 61f 69f
8:30 3 5 mph 1010mb 61f 69f
8:24 1 3 mph 1010mb 61f 70f
8:18 3 5 mph 1010mb 61f 70f
8:12 3 5 mph 1009.9mb 62f 70f
8:06 1 2 mph 1009.9mb 62f 69f
8:00 2 5 mph 1009.9mb 62f 69f
7:54 3 3 mph 1009.8mb 63f 69f
7:48 3 5 mph 1009.7mb 64f 69f
7:42 3 5 mph 1009.6mb 65f 69f
7:36 5 6 mph 1009.6mb 65f 69f
7:30 5 6 mph 1009.5mb 65f 70f
7:24 2 3 mph 1009.4mb 65f 70f
7:18 2 2 mph - - -
7:12 1 2 mph 1009.4mb 66f 71f
7:06  -  1 mph 1009.3mb 66f 71f
7:00  -  1 mph 1009.3mb 66f 71f
6:54 1 2 mph 1009.3mb 66f 71f
6:48  -  2 mph - - -
6:42  -  3 mph 1009.2mb 66f 71f
6:36 2 3 mph 1009.1mb 66f 71f
6:30 1 2 mph 1009mb 66f 71f
6:24  -  1 mph 1009mb 66f 72f
6:18  -  3 mph 1009mb 66f 71f
6:12 2 3 mph 1008.9mb 66f 71f
6:06 2 3 mph 1008.9mb 66f 71f
6:00 2 3 mph 1008.8mb 66f -
5:54 2 3 mph 1008.8mb 66f 71f
5:48 1 2 mph 1008.9mb - -
5:42 1 3 mph 1008.9mb 66f 71f
5:36 3 6 mph 1008.8mb 66f 70f
5:30 5 6 mph 1008.8mb 66f -
5:24 3 5 mph 1008.8mb 66f 70f
5:18 5 6 mph 1008.9mb 66f 69f
5:12 5 6 mph 1008.9mb 66f 69f
5:06 6 8 mph 1009mb 65f 69f
5:00 6 8 mph 1009.1mb 64f -
4:54 7 8 mph 1009.1mb 64f 69f
4:48 7 8 mph 1009.1mb - -
4:42 6 7 mph 1009.2mb 66f 70f
4:36 6 7 mph 1009.2mb 66f 70f
4:30 6 8 mph 1009.2mb - -
4:24 7 8 mph 1009.3mb 66f 70f
4:00 6 7 mph 1009.5mb 66f -
3:54 5 8 mph 1009.6mb 66f 70f
3:48 7 8 mph 1009.4mb - -
3:42 6 7 mph 1009.6mb 66f 70f
3:36 6 8 mph 1009.7mb 66f 70f
3:30 8 9 mph 1009.7mb 66f -
3:24 7 8 mph 1009.7mb 66f 70f
3:18 6 7 mph - - -
3:12 7 8 mph 1009.9mb 66f 70f
3:06 6 9 mph 1010mb 66f 70f
3:00 7 9 mph 1010mb 67f 70f
2:54 8 10 mph 1010.1mb 67f 70f
2:48 7 8 mph 1010.1mb 67f 70f
2:42 6 7 mph 1010.2mb 66f 70f
2:36 6 7 mph 1010.2mb 66f 70f
2:30 6 7 mph 1010.2mb 67f 70f
2:24 7 8 mph 1010.1mb 67f 70f
2:18 6 7 mph 1010.2mb 67f 70f
2:12 6 6 mph 1010.3mb 66f 70f
2:06 5 6 mph 1010.3mb 65f 70f
2:00 3 5 mph 1010.4mb 64f 70f
1:54 3 5 mph 1010.4mb 64f 70f